sensor_id;sensor_type;location;lat;lon;timestamp;temperature;humidity
69393;SHT31;56582;44.624;20.378;2023-04-03T00:00:38;9.94;85.58
69393;SHT31;56582;44.624;20.378;2023-04-03T00:03:03;10.05;85.62
69393;SHT31;56582;44.624;20.378;2023-04-03T00:05:29;10.00;85.81
69393;SHT31;56582;44.624;20.378;2023-04-03T00:07:55;10.01;85.79
69393;SHT31;56582;44.624;20.378;2023-04-03T00:10:20;10.08;85.65
69393;SHT31;56582;44.624;20.378;2023-04-03T00:12:46;10.02;85.90
69393;SHT31;56582;44.624;20.378;2023-04-03T00:15:12;9.98;86.37
69393;SHT31;56582;44.624;20.378;2023-04-03T00:17:38;10.01;86.20
69393;SHT31;56582;44.624;20.378;2023-04-03T00:20:04;9.84;86.96
69393;SHT31;56582;44.624;20.378;2023-04-03T00:22:30;9.63;87.56
69393;SHT31;56582;44.624;20.378;2023-04-03T00:24:56;9.53;88.13
69393;SHT31;56582;44.624;20.378;2023-04-03T00:27:22;9.59;88.34
69393;SHT31;56582;44.624;20.378;2023-04-03T00:29:47;9.43;88.83
69393;SHT31;56582;44.624;20.378;2023-04-03T00:32:13;9.36;89.34
69393;SHT31;56582;44.624;20.378;2023-04-03T00:34:38;9.36;89.56
69393;SHT31;56582;44.624;20.378;2023-04-03T00:37:04;9.32;89.98
69393;SHT31;56582;44.624;20.378;2023-04-03T00:39:30;9.36;90.20
69393;SHT31;56582;44.624;20.378;2023-04-03T00:41:55;9.57;89.92
69393;SHT31;56582;44.624;20.378;2023-04-03T00:46:46;9.38;90.34
69393;SHT31;56582;44.624;20.378;2023-04-03T00:49:11;9.40;90.68
69393;SHT31;56582;44.624;20.378;2023-04-03T00:51:37;9.42;90.80
69393;SHT31;56582;44.624;20.378;2023-04-03T00:54:05;9.25;91.37
69393;SHT31;56582;44.624;20.378;2023-04-03T00:56:32;9.12;91.69
69393;SHT31;56582;44.624;20.378;2023-04-03T00:59:13;9.15;92.01
69393;SHT31;56582;44.624;20.378;2023-04-03T01:01:39;9.08;92.37
69393;SHT31;56582;44.624;20.378;2023-04-03T01:04:05;9.11;92.32
69393;SHT31;56582;44.624;20.378;2023-04-03T01:06:36;8.95;92.71
69393;SHT31;56582;44.624;20.378;2023-04-03T01:09:03;9.04;92.61
69393;SHT31;56582;44.624;20.378;2023-04-03T01:11:29;9.12;92.28
69393;SHT31;56582;44.624;20.378;2023-04-03T01:13:54;9.05;92.56
69393;SHT31;56582;44.624;20.378;2023-04-03T01:16:20;9.01;92.61
69393;SHT31;56582;44.624;20.378;2023-04-03T01:18:46;9.14;92.53
69393;SHT31;56582;44.624;20.378;2023-04-03T01:26:27;9.08;92.80
69393;SHT31;56582;44.624;20.378;2023-04-03T01:28:54;9.22;92.43
69393;SHT31;56582;44.624;20.378;2023-04-03T01:34:01;9.18;92.30
69393;SHT31;56582;44.624;20.378;2023-04-03T01:36:30;9.14;92.44
69393;SHT31;56582;44.624;20.378;2023-04-03T01:38:56;9.10;92.49
69393;SHT31;56582;44.624;20.378;2023-04-03T01:41:22;9.11;92.61
69393;SHT31;56582;44.624;20.378;2023-04-03T01:43:48;9.00;92.28
69393;SHT31;56582;44.624;20.378;2023-04-03T01:46:15;8.71;91.64
69393;SHT31;56582;44.624;20.378;2023-04-03T01:48:40;8.95;90.78
69393;SHT31;56582;44.624;20.378;2023-04-03T01:51:06;8.65;90.64
69393;SHT31;56582;44.624;20.378;2023-04-03T01:53:31;8.47;91.31
69393;SHT31;56582;44.624;20.378;2023-04-03T01:55:57;8.60;91.16
69393;SHT31;56582;44.624;20.378;2023-04-03T01:58:22;8.61;91.38
69393;SHT31;56582;44.624;20.378;2023-04-03T02:00:47;8.52;91.62
69393;SHT31;56582;44.624;20.378;2023-04-03T02:03:13;8.25;91.89
69393;SHT31;56582;44.624;20.378;2023-04-03T02:05:39;8.17;91.88
69393;SHT31;56582;44.624;20.378;2023-04-03T02:08:04;8.03;91.60
69393;SHT31;56582;44.624;20.378;2023-04-03T02:10:31;8.03;91.14
69393;SHT31;56582;44.624;20.378;2023-04-03T02:12:56;7.84;91.20
69393;SHT31;56582;44.624;20.378;2023-04-03T02:15:21;7.86;91.41
69393;SHT31;56582;44.624;20.378;2023-04-03T02:17:47;7.63;90.64
69393;SHT31;56582;44.624;20.378;2023-04-03T02:20:13;7.50;90.30
69393;SHT31;56582;44.624;20.378;2023-04-03T02:22:38;7.43;90.13
69393;SHT31;56582;44.624;20.378;2023-04-03T02:25:04;7.33;90.06
69393;SHT31;56582;44.624;20.378;2023-04-03T02:27:29;7.26;90.31
69393;SHT31;56582;44.624;20.378;2023-04-03T02:29:57;7.24;90.27
69393;SHT31;56582;44.624;20.378;2023-04-03T02:32:22;7.30;89.76
69393;SHT31;56582;44.624;20.378;2023-04-03T02:34:48;7.10;88.91
69393;SHT31;56582;44.624;20.378;2023-04-03T02:37:13;7.12;88.88
69393;SHT31;56582;44.624;20.378;2023-04-03T02:39:39;7.05;87.92
69393;SHT31;56582;44.624;20.378;2023-04-03T02:42:04;7.12;87.88
69393;SHT31;56582;44.624;20.378;2023-04-03T02:44:30;6.92;88.50
69393;SHT31;56582;44.624;20.378;2023-04-03T02:46:55;6.75;88.80
69393;SHT31;56582;44.624;20.378;2023-04-03T02:49:21;6.81;88.59
69393;SHT31;56582;44.624;20.378;2023-04-03T02:51:46;6.74;88.40
69393;SHT31;56582;44.624;20.378;2023-04-03T02:54:13;6.75;88.74
69393;SHT31;56582;44.624;20.378;2023-04-03T02:56:38;6.72;88.62
69393;SHT31;56582;44.624;20.378;2023-04-03T02:59:04;6.69;88.75
69393;SHT31;56582;44.624;20.378;2023-04-03T03:01:30;6.72;88.44
69393;SHT31;56582;44.624;20.378;2023-04-03T03:04:01;6.71;87.92
69393;SHT31;56582;44.624;20.378;2023-04-03T03:06:27;6.75;87.53
69393;SHT31;56582;44.624;20.378;2023-04-03T03:08:52;6.75;87.69
69393;SHT31;56582;44.624;20.378;2023-04-03T03:11:18;6.59;87.62
69393;SHT31;56582;44.624;20.378;2023-04-03T03:13:43;6.51;88.16
69393;SHT31;56582;44.624;20.378;2023-04-03T03:16:09;6.65;88.64
69393;SHT31;56582;44.624;20.378;2023-04-03T03:18:35;6.55;88.53
69393;SHT31;56582;44.624;20.378;2023-04-03T03:21:01;6.47;89.39
69393;SHT31;56582;44.624;20.378;2023-04-03T03:23:28;6.64;89.36
69393;SHT31;56582;44.624;20.378;2023-04-03T03:25:56;6.63;88.80
69393;SHT31;56582;44.624;20.378;2023-04-03T03:28:22;6.36;89.27
69393;SHT31;56582;44.624;20.378;2023-04-03T03:30:47;6.51;89.19
69393;SHT31;56582;44.624;20.378;2023-04-03T03:33:13;6.52;89.42
69393;SHT31;56582;44.624;20.378;2023-04-03T03:35:38;6.54;89.09
69393;SHT31;56582;44.624;20.378;2023-04-03T03:38:04;6.57;89.58
69393;SHT31;56582;44.624;20.378;2023-04-03T03:40:29;6.54;89.62
69393;SHT31;56582;44.624;20.378;2023-04-03T03:42:54;6.38;89.80
69393;SHT31;56582;44.624;20.378;2023-04-03T03:45:20;6.40;89.83
69393;SHT31;56582;44.624;20.378;2023-04-03T03:47:45;6.36;89.77
69393;SHT31;56582;44.624;20.378;2023-04-03T03:50:11;6.58;89.94
69393;SHT31;56582;44.624;20.378;2023-04-03T03:52:37;6.72;91.41
69393;SHT31;56582;44.624;20.378;2023-04-03T03:55:05;6.78;89.56
69393;SHT31;56582;44.624;20.378;2023-04-03T03:57:31;7.23;91.62
69393;SHT31;56582;44.624;20.378;2023-04-03T03:59:56;7.17;90.35
69393;SHT31;56582;44.624;20.378;2023-04-03T04:02:22;7.64;92.56
69393;SHT31;56582;44.624;20.378;2023-04-03T04:04:48;7.15;86.85
69393;SHT31;56582;44.624;20.378;2023-04-03T04:07:14;6.82;88.24
69393;SHT31;56582;44.624;20.378;2023-04-03T04:09:39;6.93;88.38
69393;SHT31;56582;44.624;20.378;2023-04-03T04:12:05;7.05;87.30
69393;SHT31;56582;44.624;20.378;2023-04-03T04:14:31;6.81;88.01
69393;SHT31;56582;44.624;20.378;2023-04-03T04:16:56;6.79;88.31
69393;SHT31;56582;44.624;20.378;2023-04-03T04:19:22;6.79;86.51
69393;SHT31;56582;44.624;20.378;2023-04-03T04:21:47;6.76;86.32
69393;SHT31;56582;44.624;20.378;2023-04-03T04:24:12;6.52;86.28
69393;SHT31;56582;44.624;20.378;2023-04-03T04:26:38;6.33;86.96
69393;SHT31;56582;44.624;20.378;2023-04-03T04:29:03;6.48;85.83
69393;SHT31;56582;44.624;20.378;2023-04-03T04:31:29;6.33;87.07
69393;SHT31;56582;44.624;20.378;2023-04-03T04:33:54;6.24;87.04
69393;SHT31;56582;44.624;20.378;2023-04-03T04:36:20;6.23;86.35
69393;SHT31;56582;44.624;20.378;2023-04-03T04:38:46;6.11;86.52
69393;SHT31;56582;44.624;20.378;2023-04-03T04:41:11;5.96;86.76
69393;SHT31;56582;44.624;20.378;2023-04-03T04:43:37;5.79;87.16
69393;SHT31;56582;44.624;20.378;2023-04-03T04:46:07;5.87;87.00
69393;SHT31;56582;44.624;20.378;2023-04-03T04:48:34;5.90;86.80
69393;SHT31;56582;44.624;20.378;2023-04-03T04:51:00;5.83;86.59
69393;SHT31;56582;44.624;20.378;2023-04-03T04:53:25;5.85;86.85
69393;SHT31;56582;44.624;20.378;2023-04-03T04:55:52;5.89;86.65
69393;SHT31;56582;44.624;20.378;2023-04-03T04:58:17;5.73;87.04
69393;SHT31;56582;44.624;20.378;2023-04-03T05:00:43;6.05;86.48
69393;SHT31;56582;44.624;20.378;2023-04-03T05:03:09;5.85;86.92
69393;SHT31;56582;44.624;20.378;2023-04-03T05:05:34;5.76;86.95
69393;SHT31;56582;44.624;20.378;2023-04-03T05:08:01;5.85;86.99
69393;SHT31;56582;44.624;20.378;2023-04-03T05:10:27;5.72;87.77
69393;SHT31;56582;44.624;20.378;2023-04-03T05:12:53;5.51;88.05
69393;SHT31;56582;44.624;20.378;2023-04-03T05:15:18;5.56;88.06
69393;SHT31;56582;44.624;20.378;2023-04-03T05:17:44;5.59;88.20
69393;SHT31;56582;44.624;20.378;2023-04-03T05:20:10;5.55;88.19
69393;SHT31;56582;44.624;20.378;2023-04-03T05:22:35;5.63;88.03
69393;SHT31;56582;44.624;20.378;2023-04-03T05:25:01;5.58;88.39
69393;SHT31;56582;44.624;20.378;2023-04-03T05:27:26;5.62;88.82
69393;SHT31;56582;44.624;20.378;2023-04-03T05:29:54;5.63;88.26
69393;SHT31;56582;44.624;20.378;2023-04-03T05:32:20;5.58;89.24
69393;SHT31;56582;44.624;20.378;2023-04-03T05:34:46;5.49;89.26
69393;SHT31;56582;44.624;20.378;2023-04-03T05:37:11;5.31;89.76
69393;SHT31;56582;44.624;20.378;2023-04-03T05:39:37;5.23;90.31
69393;SHT31;56582;44.624;20.378;2023-04-03T05:42:06;5.35;90.63
69393;SHT31;56582;44.624;20.378;2023-04-03T05:44:31;5.39;90.25
69393;SHT31;56582;44.624;20.378;2023-04-03T05:46:57;5.37;90.75
69393;SHT31;56582;44.624;20.378;2023-04-03T05:49:22;5.28;91.24
69393;SHT31;56582;44.624;20.378;2023-04-03T05:51:47;5.31;91.71
69393;SHT31;56582;44.624;20.378;2023-04-03T05:54:23;5.44;91.65
69393;SHT31;56582;44.624;20.378;2023-04-03T05:56:49;5.47;91.58
69393;SHT31;56582;44.624;20.378;2023-04-03T05:59:16;5.37;91.73
69393;SHT31;56582;44.624;20.378;2023-04-03T06:01:41;5.23;92.09
69393;SHT31;56582;44.624;20.378;2023-04-03T06:04:07;5.18;92.88
69393;SHT31;56582;44.624;20.378;2023-04-03T06:09:14;5.21;93.10
69393;SHT31;56582;44.624;20.378;2023-04-03T06:11:41;5.08;93.81
69393;SHT31;56582;44.624;20.378;2023-04-03T06:14:07;5.08;94.00
69393;SHT31;56582;44.624;20.378;2023-04-03T06:16:33;5.13;94.14
69393;SHT31;56582;44.624;20.378;2023-04-03T06:18:59;5.16;94.10
69393;SHT31;56582;44.624;20.378;2023-04-03T06:21:24;5.14;94.22
69393;SHT31;56582;44.624;20.378;2023-04-03T06:23:50;5.08;94.42
69393;SHT31;56582;44.624;20.378;2023-04-03T06:26:16;5.17;94.36
69393;SHT31;56582;44.624;20.378;2023-04-03T06:28:42;5.32;94.23
69393;SHT31;56582;44.624;20.378;2023-04-03T06:31:07;5.14;94.37
69393;SHT31;56582;44.624;20.378;2023-04-03T06:33:34;5.13;94.55
69393;SHT31;56582;44.624;20.378;2023-04-03T06:36:02;5.08;94.94
69393;SHT31;56582;44.624;20.378;2023-04-03T06:38:28;5.03;95.11
69393;SHT31;56582;44.624;20.378;2023-04-03T06:40:53;4.97;95.32
69393;SHT31;56582;44.624;20.378;2023-04-03T06:43:19;4.97;95.56
69393;SHT31;56582;44.624;20.378;2023-04-03T06:45:45;5.03;95.50
69393;SHT31;56582;44.624;20.378;2023-04-03T06:48:12;5.13;95.43
69393;SHT31;56582;44.624;20.378;2023-04-03T06:50:38;5.16;95.02
69393;SHT31;56582;44.624;20.378;2023-04-03T06:53:03;5.28;95.02
69393;SHT31;56582;44.624;20.378;2023-04-03T06:55:29;5.20;94.92
69393;SHT31;56582;44.624;20.378;2023-04-03T06:57:54;5.26;95.11
69393;SHT31;56582;44.624;20.378;2023-04-03T07:00:20;5.23;95.18
69393;SHT31;56582;44.624;20.378;2023-04-03T07:02:46;5.26;95.19
69393;SHT31;56582;44.624;20.378;2023-04-03T07:05:12;5.35;94.92
69393;SHT31;56582;44.624;20.378;2023-04-03T07:07:38;5.47;95.00
69393;SHT31;56582;44.624;20.378;2023-04-03T07:10:06;5.37;94.87
69393;SHT31;56582;44.624;20.378;2023-04-03T07:12:31;5.45;94.94
69393;SHT31;56582;44.624;20.378;2023-04-03T07:14:57;5.48;94.89
69393;SHT31;56582;44.624;20.378;2023-04-03T07:17:23;5.51;94.67
69393;SHT31;56582;44.624;20.378;2023-04-03T07:19:48;5.48;94.50
69393;SHT31;56582;44.624;20.378;2023-04-03T07:22:14;5.59;94.68
69393;SHT31;56582;44.624;20.378;2023-04-03T07:24:39;5.39;94.62
69393;SHT31;56582;44.624;20.378;2023-04-03T07:27:05;5.59;94.79
69393;SHT31;56582;44.624;20.378;2023-04-03T07:29:31;5.68;94.42
69393;SHT31;56582;44.624;20.378;2023-04-03T07:31:56;5.52;94.20
69393;SHT31;56582;44.624;20.378;2023-04-03T07:34:22;5.55;94.33
69393;SHT31;56582;44.624;20.378;2023-04-03T07:36:48;5.70;94.38
69393;SHT31;56582;44.624;20.378;2023-04-03T07:39:13;5.58;94.16
69393;SHT31;56582;44.624;20.378;2023-04-03T07:41:39;5.59;94.68
69393;SHT31;56582;44.624;20.378;2023-04-03T07:44:04;5.69;94.39
69393;SHT31;56582;44.624;20.378;2023-04-03T07:46:31;5.75;94.51
69393;SHT31;56582;44.624;20.378;2023-04-03T07:48:56;5.54;95.06
69393;SHT31;56582;44.624;20.378;2023-04-03T07:51:22;5.42;95.40
69393;SHT31;56582;44.624;20.378;2023-04-03T07:53:47;5.47;95.59
69393;SHT31;56582;44.624;20.378;2023-04-03T07:56:13;5.54;95.55
69393;SHT31;56582;44.624;20.378;2023-04-03T07:58:39;5.52;95.61
69393;SHT31;56582;44.624;20.378;2023-04-03T08:01:05;5.65;95.51
69393;SHT31;56582;44.624;20.378;2023-04-03T08:03:31;5.58;95.35
69393;SHT31;56582;44.624;20.378;2023-04-03T08:06:03;5.68;95.15
69393;SHT31;56582;44.624;20.378;2023-04-03T08:08:29;5.63;94.64
69393;SHT31;56582;44.624;20.378;2023-04-03T08:10:55;5.68;93.67
69393;SHT31;56582;44.624;20.378;2023-04-03T08:13:21;5.80;93.41
69393;SHT31;56582;44.624;20.378;2023-04-03T08:15:47;5.75;93.56
69393;SHT31;56582;44.624;20.378;2023-04-03T08:18:14;5.70;93.69
69393;SHT31;56582;44.624;20.378;2023-04-03T08:20:40;5.82;94.03
69393;SHT31;56582;44.624;20.378;2023-04-03T08:23:06;5.78;93.02
69393;SHT31;56582;44.624;20.378;2023-04-03T08:25:33;5.85;92.92
69393;SHT31;56582;44.624;20.378;2023-04-03T08:27:59;5.83;92.19
69393;SHT31;56582;44.624;20.378;2023-04-03T08:30:24;5.93;92.49
69393;SHT31;56582;44.624;20.378;2023-04-03T08:32:50;5.97;92.46
69393;SHT31;56582;44.624;20.378;2023-04-03T08:35:15;6.07;92.36
69393;SHT31;56582;44.624;20.378;2023-04-03T08:37:41;6.13;91.21
69393;SHT31;56582;44.624;20.378;2023-04-03T08:40:08;6.09;91.33
69393;SHT31;56582;44.624;20.378;2023-04-03T08:42:43;6.10;91.57
69393;SHT31;56582;44.624;20.378;2023-04-03T08:47:54;6.31;90.90
69393;SHT31;56582;44.624;20.378;2023-04-03T08:50:28;6.23;91.02
69393;SHT31;56582;44.624;20.378;2023-04-03T08:52:58;6.28;90.85
69393;SHT31;56582;44.624;20.378;2023-04-03T08:55:40;6.40;90.64
69393;SHT31;56582;44.624;20.378;2023-04-03T09:00:50;6.52;91.55
69393;SHT31;56582;44.624;20.378;2023-04-03T09:03:19;6.48;91.02
69393;SHT31;56582;44.624;20.378;2023-04-03T09:05:52;6.55;89.83
69393;SHT31;56582;44.624;20.378;2023-04-03T09:17:00;6.69;88.37
69393;SHT31;56582;44.624;20.378;2023-04-03T09:22:21;6.86;85.49
69393;SHT31;56582;44.624;20.378;2023-04-03T09:25:22;6.85;85.79
69393;SHT31;56582;44.624;20.378;2023-04-03T09:27:49;6.97;85.99
69393;SHT31;56582;44.624;20.378;2023-04-03T09:30:17;7.03;84.38
69393;SHT31;56582;44.624;20.378;2023-04-03T09:32:47;7.06;86.21
69393;SHT31;56582;44.624;20.378;2023-04-03T09:37:41;7.09;82.94
69393;SHT31;56582;44.624;20.378;2023-04-03T09:40:31;7.19;83.22
69393;SHT31;56582;44.624;20.378;2023-04-03T09:43:02;7.07;82.75
69393;SHT31;56582;44.624;20.378;2023-04-03T09:45:42;7.02;83.15
69393;SHT31;56582;44.624;20.378;2023-04-03T09:53:38;6.95;84.30
69393;SHT31;56582;44.624;20.378;2023-04-03T09:56:19;7.00;85.10
69393;SHT31;56582;44.624;20.378;2023-04-03T10:01:33;7.09;83.86
69393;SHT31;56582;44.624;20.378;2023-04-03T10:04:07;7.13;84.67
69393;SHT31;56582;44.624;20.378;2023-04-03T10:06:35;7.28;84.33
69393;SHT31;56582;44.624;20.378;2023-04-03T10:09:15;7.48;82.84
69393;SHT31;56582;44.624;20.378;2023-04-03T10:12:11;7.64;82.73
69393;SHT31;56582;44.624;20.378;2023-04-03T10:14:53;7.63;81.39
69393;SHT31;56582;44.624;20.378;2023-04-03T10:25:45;7.67;81.85
69393;SHT31;56582;44.624;20.378;2023-04-03T10:34:32;7.91;82.85
69393;SHT31;56582;44.624;20.378;2023-04-03T10:50:26;8.15;78.58
69393;SHT31;56582;44.624;20.378;2023-04-03T10:59:06;8.22;79.10
69393;SHT31;56582;44.624;20.378;2023-04-03T11:01:37;8.09;79.25
69393;SHT31;56582;44.624;20.378;2023-04-03T11:04:04;8.17;79.68
69393;SHT31;56582;44.624;20.378;2023-04-03T11:06:36;8.07;79.83
69393;SHT31;56582;44.624;20.378;2023-04-03T11:09:35;8.15;79.85
69393;SHT31;56582;44.624;20.378;2023-04-03T11:12:14;8.17;79.21
69393;SHT31;56582;44.624;20.378;2023-04-03T11:14:42;8.30;79.79
69393;SHT31;56582;44.624;20.378;2023-04-03T11:19:58;8.36;78.75
69393;SHT31;56582;44.624;20.378;2023-04-03T11:22:32;8.36;78.62
69393;SHT31;56582;44.624;20.378;2023-04-03T11:33:25;8.87;77.01
69393;SHT31;56582;44.624;20.378;2023-04-03T11:36:26;8.85;76.99
69393;SHT31;56582;44.624;20.378;2023-04-03T11:38:56;8.97;77.64
69393;SHT31;56582;44.624;20.378;2023-04-03T11:41:30;8.87;75.63
69393;SHT31;56582;44.624;20.378;2023-04-03T11:44:02;8.92;77.29
69393;SHT31;56582;44.624;20.378;2023-04-03T12:16:27;9.32;74.77
69393;SHT31;56582;44.624;20.378;2023-04-03T12:27:17;9.12;76.63
69393;SHT31;56582;44.624;20.378;2023-04-03T12:29:54;9.35;75.81
69393;SHT31;56582;44.624;20.378;2023-04-03T12:46:19;9.11;76.47
69393;SHT31;56582;44.624;20.378;2023-04-03T12:48:50;9.25;77.26
69393;SHT31;56582;44.624;20.378;2023-04-03T12:51:22;9.36;76.59
69393;SHT31;56582;44.624;20.378;2023-04-03T12:53:52;9.36;75.70
69393;SHT31;56582;44.624;20.378;2023-04-03T12:58:49;9.59;74.36
69393;SHT31;56582;44.624;20.378;2023-04-03T13:01:23;9.60;74.58
69393;SHT31;56582;44.624;20.378;2023-04-03T13:03:52;9.40;75.55
69393;SHT31;56582;44.624;20.378;2023-04-03T13:06:22;9.42;76.01
69393;SHT31;56582;44.624;20.378;2023-04-03T13:08:55;9.35;76.57
69393;SHT31;56582;44.624;20.378;2023-04-03T13:11:23;9.15;76.94
69393;SHT31;56582;44.624;20.378;2023-04-03T13:13:59;8.97;77.53
69393;SHT31;56582;44.624;20.378;2023-04-03T13:16:25;9.01;78.00
69393;SHT31;56582;44.624;20.378;2023-04-03T13:18:53;8.92;78.21
69393;SHT31;56582;44.624;20.378;2023-04-03T13:21:25;9.16;78.16
69393;SHT31;56582;44.624;20.378;2023-04-03T13:23:54;9.31;77.81
69393;SHT31;56582;44.624;20.378;2023-04-03T13:26:22;9.35;77.48
69393;SHT31;56582;44.624;20.378;2023-04-03T13:28:48;9.33;77.44
69393;SHT31;56582;44.624;20.378;2023-04-03T13:31:29;9.47;78.12
69393;SHT31;56582;44.624;20.378;2023-04-03T13:41:46;9.36;74.60
69393;SHT31;56582;44.624;20.378;2023-04-03T13:44:35;9.59;74.93
69393;SHT31;56582;44.624;20.378;2023-04-03T13:47:16;9.46;75.88
69393;SHT31;56582;44.624;20.378;2023-04-03T13:49:44;9.47;73.84
69393;SHT31;56582;44.624;20.378;2023-04-03T13:52:29;9.42;73.20
69393;SHT31;56582;44.624;20.378;2023-04-03T13:55:03;9.56;73.93
69393;SHT31;56582;44.624;20.378;2023-04-03T13:57:36;9.49;74.37
69393;SHT31;56582;44.624;20.378;2023-04-03T14:00:27;9.56;73.16
69393;SHT31;56582;44.624;20.378;2023-04-03T14:02:56;9.56;74.13
69393;SHT31;56582;44.624;20.378;2023-04-03T14:05:22;9.56;74.00
69393;SHT31;56582;44.624;20.378;2023-04-03T14:07:54;9.38;74.67
69393;SHT31;56582;44.624;20.378;2023-04-03T14:10:21;9.64;74.06
69393;SHT31;56582;44.624;20.378;2023-04-03T14:12:46;9.61;74.47
69393;SHT31;56582;44.624;20.378;2023-04-03T14:15:38;9.44;74.84
69393;SHT31;56582;44.624;20.378;2023-04-03T14:18:04;9.56;75.16
69393;SHT31;56582;44.624;20.378;2023-04-03T14:20:29;9.56;75.32
69393;SHT31;56582;44.624;20.378;2023-04-03T14:22:55;9.70;74.39
69393;SHT31;56582;44.624;20.378;2023-04-03T14:25:21;9.64;74.22
69393;SHT31;56582;44.624;20.378;2023-04-03T14:27:49;9.59;74.37
69393;SHT31;56582;44.624;20.378;2023-04-03T14:30:23;9.47;74.90
69393;SHT31;56582;44.624;20.378;2023-04-03T14:32:49;9.66;73.87
69393;SHT31;56582;44.624;20.378;2023-04-03T14:35:16;9.67;73.66
69393;SHT31;56582;44.624;20.378;2023-04-03T14:37:42;9.83;73.23
69393;SHT31;56582;44.624;20.378;2023-04-03T14:40:14;9.66;74.54
69393;SHT31;56582;44.624;20.378;2023-04-03T14:42:40;9.76;73.74
69393;SHT31;56582;44.624;20.378;2023-04-03T14:45:10;9.59;72.97
69393;SHT31;56582;44.624;20.378;2023-04-03T14:47:47;9.44;73.24
69393;SHT31;56582;44.624;20.378;2023-04-03T14:50:17;9.60;72.19
69393;SHT31;56582;44.624;20.378;2023-04-03T14:52:43;9.47;72.94
69393;SHT31;56582;44.624;20.378;2023-04-03T14:55:12;9.56;72.27
69393;SHT31;56582;44.624;20.378;2023-04-03T14:57:37;9.52;72.95
69393;SHT31;56582;44.624;20.378;2023-04-03T15:00:06;9.42;73.22
69393;SHT31;56582;44.624;20.378;2023-04-03T15:02:37;9.42;73.67
69393;SHT31;56582;44.624;20.378;2023-04-03T15:05:08;9.52;74.01
69393;SHT31;56582;44.624;20.378;2023-04-03T15:07:38;9.60;73.16
69393;SHT31;56582;44.624;20.378;2023-04-03T15:10:15;9.56;73.92
69393;SHT31;56582;44.624;20.378;2023-04-03T15:12:42;9.38;74.47
69393;SHT31;56582;44.624;20.378;2023-04-03T15:15:08;9.42;74.54
69393;SHT31;56582;44.624;20.378;2023-04-03T15:17:34;9.46;74.09
69393;SHT31;56582;44.624;20.378;2023-04-03T15:20:00;9.31;73.57
69393;SHT31;56582;44.624;20.378;2023-04-03T15:22:26;9.35;73.89
69393;SHT31;56582;44.624;20.378;2023-04-03T15:25:01;9.35;73.86
69393;SHT31;56582;44.624;20.378;2023-04-03T15:27:27;9.29;72.97
69393;SHT31;56582;44.624;20.378;2023-04-03T15:29:53;9.31;73.83
69393;SHT31;56582;44.624;20.378;2023-04-03T15:32:19;9.26;73.99
69393;SHT31;56582;44.624;20.378;2023-04-03T15:34:44;9.38;74.07
69393;SHT31;56582;44.624;20.378;2023-04-03T15:37:10;9.12;74.42
69393;SHT31;56582;44.624;20.378;2023-04-03T15:39:35;9.21;74.33
69393;SHT31;56582;44.624;20.378;2023-04-03T15:42:01;9.14;73.51
69393;SHT31;56582;44.624;20.378;2023-04-03T15:44:32;9.14;72.36
69393;SHT31;56582;44.624;20.378;2023-04-03T15:46:59;9.25;72.49
69393;SHT31;56582;44.624;20.378;2023-04-03T15:49:24;8.97;72.26
69393;SHT31;56582;44.624;20.378;2023-04-03T15:51:51;9.07;71.92
69393;SHT31;56582;44.624;20.378;2023-04-03T15:54:17;8.97;72.00
69393;SHT31;56582;44.624;20.378;2023-04-03T15:56:42;8.97;71.76
69393;SHT31;56582;44.624;20.378;2023-04-03T15:59:08;9.01;70.58
69393;SHT31;56582;44.624;20.378;2023-04-03T16:01:34;8.92;70.87
69393;SHT31;56582;44.624;20.378;2023-04-03T16:04:00;8.98;70.39
69393;SHT31;56582;44.624;20.378;2023-04-03T16:06:25;9.04;71.70
69393;SHT31;56582;44.624;20.378;2023-04-03T16:08:54;8.82;71.48
69393;SHT31;56582;44.624;20.378;2023-04-03T16:11:26;8.91;71.14
69393;SHT31;56582;44.624;20.378;2023-04-03T16:13:53;8.84;70.53
69393;SHT31;56582;44.624;20.378;2023-04-03T16:16:19;8.97;70.03
69393;SHT31;56582;44.624;20.378;2023-04-03T16:18:45;8.82;70.21
69393;SHT31;56582;44.624;20.378;2023-04-03T16:21:13;8.82;71.20
69393;SHT31;56582;44.624;20.378;2023-04-03T16:23:40;8.80;70.60
69393;SHT31;56582;44.624;20.378;2023-04-03T16:26:06;8.78;70.41
69393;SHT31;56582;44.624;20.378;2023-04-03T16:28:32;8.64;70.13
69393;SHT31;56582;44.624;20.378;2023-04-03T16:30:57;8.57;70.97
69393;SHT31;56582;44.624;20.378;2023-04-03T16:33:25;8.57;70.63
69393;SHT31;56582;44.624;20.378;2023-04-03T16:35:50;8.64;70.71
69393;SHT31;56582;44.624;20.378;2023-04-03T16:38:18;8.60;70.64
69393;SHT31;56582;44.624;20.378;2023-04-03T16:40:45;8.60;70.90
69393;SHT31;56582;44.624;20.378;2023-04-03T16:43:10;8.67;71.19
69393;SHT31;56582;44.624;20.378;2023-04-03T16:45:36;8.54;71.26
69393;SHT31;56582;44.624;20.378;2023-04-03T16:48:01;8.65;70.91
69393;SHT31;56582;44.624;20.378;2023-04-03T16:50:27;8.49;71.21
69393;SHT31;56582;44.624;20.378;2023-04-03T16:52:53;8.53;71.33
69393;SHT31;56582;44.624;20.378;2023-04-03T16:55:18;8.59;71.43
69393;SHT31;56582;44.624;20.378;2023-04-03T16:57:46;8.50;70.86
69393;SHT31;56582;44.624;20.378;2023-04-03T17:00:12;8.50;70.72
69393;SHT31;56582;44.624;20.378;2023-04-03T17:02:39;8.39;71.40
69393;SHT31;56582;44.624;20.378;2023-04-03T17:05:04;8.44;69.85
69393;SHT31;56582;44.624;20.378;2023-04-03T17:07:30;8.56;70.08
69393;SHT31;56582;44.624;20.378;2023-04-03T17:09:56;8.46;69.74
69393;SHT31;56582;44.624;20.378;2023-04-03T17:12:24;8.40;70.07
69393;SHT31;56582;44.624;20.378;2023-04-03T17:14:50;8.43;70.10
69393;SHT31;56582;44.624;20.378;2023-04-03T17:17:21;8.34;69.58
69393;SHT31;56582;44.624;20.378;2023-04-03T17:19:47;8.30;70.03
69393;SHT31;56582;44.624;20.378;2023-04-03T17:22:12;8.30;69.31
69393;SHT31;56582;44.624;20.378;2023-04-03T17:24:38;8.15;69.92
69393;SHT31;56582;44.624;20.378;2023-04-03T17:27:03;8.23;69.59
69393;SHT31;56582;44.624;20.378;2023-04-03T17:29:29;8.29;69.16
69393;SHT31;56582;44.624;20.378;2023-04-03T17:31:55;8.21;68.84
69393;SHT31;56582;44.624;20.378;2023-04-03T17:34:20;8.19;69.17
69393;SHT31;56582;44.624;20.378;2023-04-03T17:36:46;8.21;68.72
69393;SHT31;56582;44.624;20.378;2023-04-03T17:39:12;8.21;68.19
69393;SHT31;56582;44.624;20.378;2023-04-03T17:41:37;8.16;68.52
69393;SHT31;56582;44.624;20.378;2023-04-03T17:44:04;8.22;68.35
69393;SHT31;56582;44.624;20.378;2023-04-03T17:46:29;8.02;69.06
69393;SHT31;56582;44.624;20.378;2023-04-03T17:48:55;7.95;69.25
69393;SHT31;56582;44.624;20.378;2023-04-03T17:51:24;8.17;68.74
69393;SHT31;56582;44.624;20.378;2023-04-03T17:53:49;8.05;69.54
69393;SHT31;56582;44.624;20.378;2023-04-03T17:56:20;8.05;70.10
69393;SHT31;56582;44.624;20.378;2023-04-03T17:58:48;8.02;69.86
69393;SHT31;56582;44.624;20.378;2023-04-03T18:01:17;7.94;70.05